createdAt,value
2019-02-19T00:01:04.127Z,100761.72
2019-02-19T00:03:33.374Z,100772.73
2019-02-19T00:06:05.981Z,100769.86
2019-02-19T00:08:35.216Z,100763.64
2019-02-19T00:11:04.532Z,100764.62
2019-02-19T00:13:33.744Z,100768.33
2019-02-19T00:16:05.543Z,100765.14
2019-02-19T00:18:35.112Z,100771.09
2019-02-19T00:21:04.337Z,100767.95
2019-02-19T00:23:33.565Z,100762.78
2019-02-19T00:26:04.606Z,100768.25
2019-02-19T00:28:33.826Z,100762.89
2019-02-19T00:31:03.048Z,100763.75
2019-02-19T00:33:32.650Z,100767.98
2019-02-19T00:36:05.077Z,100758.73
2019-02-19T00:38:34.341Z,100761.02
2019-02-19T00:41:06.267Z,100758.69
2019-02-19T00:43:35.489Z,100755.73
2019-02-19T00:46:05.691Z,100765.37
2019-02-19T00:48:35.296Z,100763.23
2019-02-19T00:51:04.493Z,100758.49
2019-02-19T00:53:33.731Z,100763.94
2019-02-19T00:56:03.953Z,100765.20
2019-02-19T00:58:33.174Z,100767.33
2019-02-19T01:01:02.406Z,100774.98
2019-02-19T01:03:31.948Z,100769.78
2019-02-19T01:06:03.227Z,100771.84
2019-02-19T01:08:32.093Z,100771.82
2019-02-19T01:11:01.617Z,100770.55
2019-02-19T01:13:31.079Z,100768.16
2019-02-19T01:16:00.482Z,100765.92
2019-02-19T01:18:30.017Z,100768.02
2019-02-19T01:20:59.214Z,100767.30
2019-02-19T01:23:28.489Z,100761.80
2019-02-19T01:25:58.444Z,100769.58
2019-02-19T01:28:27.685Z,100769.72
2019-02-19T01:30:57.102Z,100769.20
2019-02-19T01:33:26.743Z,100765.13
2019-02-19T01:35:56.009Z,100761.34
2019-02-19T01:38:25.296Z,100762.17
2019-02-19T01:40:54.843Z,100763.08
2019-02-19T01:43:24.981Z,100767.38
2019-02-19T01:45:54.229Z,100769.52
2019-02-19T01:48:23.514Z,100774.38
2019-02-19T01:50:52.743Z,100769.20
2019-02-19T01:53:22.248Z,100762.59
2019-02-19T01:55:51.502Z,100764.53
2019-02-19T01:58:20.721Z,100763.26
2019-02-19T02:00:49.961Z,100765.84
2019-02-19T02:03:19.533Z,100770.08
2019-02-19T02:05:48.794Z,100761.36
2019-02-19T02:08:18.024Z,100760.78
2019-02-19T02:10:47.285Z,100754.81
2019-02-19T02:13:16.509Z,100753.27
2019-02-19T02:15:46.052Z,100751.27
2019-02-19T02:18:15.356Z,100749.37
2019-02-19T02:20:44.602Z,100749.23
2019-02-19T02:23:14.102Z,100748.66
2019-02-19T02:25:43.363Z,100746.38
2019-02-19T02:28:12.591Z,100748.86
2019-02-19T02:30:41.799Z,100746.52
2019-02-19T02:33:11.059Z,100745.55
2019-02-19T02:35:40.284Z,100743.69
2019-02-19T02:38:09.796Z,100741.63
2019-02-19T02:40:39.053Z,100743.79
2019-02-19T02:43:08.285Z,100746.14
2019-02-19T02:45:38.376Z,100739.97
2019-02-19T02:48:07.963Z,100744.59
2019-02-19T02:50:37.192Z,100753.02
2019-02-19T02:53:06.403Z,100750.82
2019-02-19T02:55:35.669Z,100748.79
2019-02-19T02:58:05.911Z,100749.63
2019-02-19T03:00:35.169Z,100746.73
2019-02-19T03:03:04.989Z,100745.03
2019-02-19T03:05:36.081Z,100751.09
2019-02-19T03:08:06.555Z,100746.66
2019-02-19T03:10:35.901Z,100743.04
2019-02-19T03:13:05.221Z,100744.21
2019-02-19T03:15:34.528Z,100738.45
2019-02-19T03:18:06.235Z,100747.55
2019-02-19T03:20:35.475Z,100740.31
2019-02-19T03:23:06.075Z,100738.97
2019-02-19T03:25:35.313Z,100745.30
2019-02-19T03:28:05.442Z,100743.71
2019-02-19T03:30:34.668Z,100749.81
2019-02-19T03:33:04.302Z,100747.64
2019-02-19T03:35:33.577Z,100742.33
2019-02-19T03:38:04.070Z,100738.23
2019-02-19T03:40:33.368Z,100746.58
2019-02-19T03:43:02.681Z,100743.53
2019-02-19T03:45:31.983Z,100749.87
2019-02-19T03:48:04.904Z,100754.14
2019-02-19T03:50:34.143Z,100747.73
2019-02-19T03:53:03.527Z,100745.94
2019-02-19T03:55:32.826Z,100748.79
2019-02-19T03:58:03.199Z,100753.61
2019-02-19T04:00:32.721Z,100761.34
2019-02-19T04:03:02.288Z,100750.88
2019-02-19T04:05:31.521Z,100759.17
2019-02-19T04:08:00.724Z,100756.55
2019-02-19T04:10:29.977Z,100758.06
2019-02-19T04:13:00.484Z,100754.66
2019-02-19T04:15:29.777Z,100752.18
2019-02-19T04:17:59.559Z,100750.98
2019-02-19T04:20:28.794Z,100755.40
2019-02-19T04:22:58.019Z,100757.19
2019-02-19T04:25:27.236Z,100759.25
2019-02-19T04:27:56.702Z,100759.77
2019-02-19T04:30:26.058Z,100760.56
2019-02-19T04:32:55.291Z,100763.47
2019-02-19T04:35:24.885Z,100759.67
2019-02-19T04:37:54.140Z,100766.29
2019-02-19T04:40:23.409Z,100765.42
2019-02-19T04:42:52.950Z,100762.22
2019-02-19T04:45:22.188Z,100768.70
2019-02-19T04:47:51.448Z,100762.05
2019-02-19T04:50:21.245Z,100763.02
2019-02-19T04:52:50.498Z,100766.77
2019-02-19T04:55:19.839Z,100763.02
2019-02-19T04:57:49.370Z,100771.44
2019-02-19T05:00:18.583Z,100774.34
2019-02-19T05:02:47.863Z,100776.39
2019-02-19T05:05:17.076Z,100778.14
2019-02-19T05:07:46.591Z,100781.05
2019-02-19T05:10:16.125Z,100778.22
2019-02-19T05:12:45.369Z,100778.31
2019-02-19T05:15:14.595Z,100776.79
2019-02-19T05:17:45.851Z,100787.13
2019-02-19T05:20:15.458Z,100781.00
2019-02-19T05:22:44.923Z,100783.13
2019-02-19T05:25:16.673Z,100779.84
2019-02-19T05:27:45.927Z,100779.78
2019-02-19T05:30:15.147Z,100779.97
2019-02-19T05:32:44.418Z,100773.08
2019-02-19T05:35:13.644Z,100778.03
2019-02-19T05:37:43.763Z,100780.74
2019-02-19T05:40:13.486Z,100781.61
2019-02-19T05:42:42.725Z,100782.69
2019-02-19T05:45:12.141Z,100789.73
2019-02-19T05:47:41.505Z,100782.11
2019-02-19T05:50:10.766Z,100778.98
2019-02-19T05:52:41.130Z,100784.79
2019-02-19T05:55:10.496Z,100777.42
2019-02-19T05:57:39.736Z,100780.36
2019-02-19T06:00:09.695Z,100786.26
2019-02-19T06:02:38.938Z,100785.94
2019-02-19T06:05:09.285Z,100789.67
2019-02-19T06:07:38.930Z,100791.23
2019-02-19T06:10:09.811Z,100799.08
2019-02-19T06:12:39.119Z,100799.14
2019-02-19T06:15:08.438Z,100802.33
2019-02-19T06:17:38.048Z,100811.62
2019-02-19T06:20:07.472Z,100803.04
2019-02-19T06:22:36.756Z,100806.73
2019-02-19T06:25:07.198Z,100818.95
2019-02-19T06:27:36.438Z,100813.56
2019-02-19T06:30:08.045Z,100813.30
2019-02-19T06:32:37.639Z,100814.29
2019-02-19T06:35:07.376Z,100811.41
2019-02-19T06:37:36.648Z,100814.23
2019-02-19T06:40:12.728Z,100823.59
2019-02-19T06:42:41.980Z,100824.32
2019-02-19T06:45:11.519Z,100824.67
2019-02-19T06:47:40.799Z,100828.09
2019-02-19T06:50:10.047Z,100826.09
2019-02-19T06:52:39.569Z,100822.50
2019-02-19T06:55:09.769Z,100823.83
2019-02-19T06:57:39.276Z,100825.62
2019-02-19T07:00:09.036Z,100821.95
2019-02-19T07:02:44.711Z,100824.92
2019-02-19T07:05:18.464Z,100818.14
2019-02-19T07:07:48.060Z,100814.45
2019-02-19T07:10:17.329Z,100820.13
2019-02-19T07:12:46.557Z,100839.58
2019-02-19T07:15:16.131Z,100862.09
2019-02-19T07:17:45.454Z,100867.62
2019-02-19T07:20:14.756Z,100866.76
2019-02-19T07:22:44.405Z,100872.25
2019-02-19T07:25:13.657Z,100875.47
2019-02-19T07:27:42.955Z,100878.80
2019-02-19T07:30:12.552Z,100872.84
2019-02-19T07:32:41.781Z,100875.66
2019-02-19T07:35:11.638Z,100876.19
2019-02-19T07:37:41.200Z,100875.77
2019-02-19T07:40:10.593Z,100880.31
2019-02-19T07:42:40.319Z,100890.06
2019-02-19T07:45:10.220Z,100895.14
2019-02-19T07:47:39.484Z,100906.34
2019-02-19T07:50:09.526Z,100905.04
2019-02-19T07:52:41.216Z,100909.97
2019-02-19T07:55:10.467Z,100900.88
2019-02-19T07:57:40.626Z,100909.02
2019-02-19T08:00:10.675Z,100920.64
2019-02-19T08:02:40.066Z,100920.28
2019-02-19T08:05:09.886Z,100918.91
2019-02-19T08:07:39.174Z,100917.31
2019-02-19T08:10:08.782Z,100915.27
2019-02-19T08:12:38.330Z,100916.36
2019-02-19T08:15:07.956Z,100920.78
2019-02-19T08:17:37.220Z,100929.08
2019-02-19T08:20:15.870Z,100935.78
2019-02-19T08:22:40.883Z,100949.48
2019-02-19T08:25:10.252Z,100941.73
2019-02-19T08:27:39.789Z,100953.22
2019-02-19T08:30:10.977Z,100952.91
2019-02-19T08:32:40.017Z,100956.27
2019-02-19T08:35:09.541Z,100951.61
2019-02-19T08:37:38.892Z,100948.25
2019-02-19T08:40:08.840Z,100961.48
2019-02-19T08:42:38.505Z,100962.02
2019-02-19T08:45:08.236Z,100968.95
2019-02-19T08:47:42.689Z,100967.67
2019-02-19T08:50:08.738Z,100974.00
2019-02-19T08:52:38.086Z,100971.06
2019-02-19T08:55:07.526Z,100965.41
2019-02-19T08:57:37.110Z,100972.44
2019-02-19T09:00:08.313Z,100971.80
2019-02-19T09:02:37.554Z,100968.95
2019-02-19T09:05:06.832Z,100971.47
2019-02-19T09:07:36.101Z,100975.02
2019-02-19T09:10:08.224Z,100980.76
2019-02-19T09:12:37.568Z,100991.47
2019-02-19T09:15:08.190Z,100989.13
2019-02-19T09:17:37.813Z,100996.83
2019-02-19T09:20:07.314Z,100991.61
2019-02-19T09:22:36.672Z,100995.17
2019-02-19T09:25:06.387Z,100991.92
2019-02-19T09:27:35.615Z,100997.72
2019-02-19T09:30:06.560Z,100994.86
2019-02-19T09:32:36.243Z,100991.03
2019-02-19T09:35:06.001Z,100999.87
2019-02-19T09:37:35.327Z,101006.19
2019-02-19T09:40:07.907Z,101006.46
2019-02-19T09:42:37.329Z,101008.91
2019-02-19T09:45:07.727Z,101001.88
2019-02-19T09:47:37.365Z,101001.11
2019-02-19T09:50:07.111Z,101006.63
2019-02-19T09:52:36.536Z,101010.25
2019-02-19T09:55:06.262Z,101006.84
2019-02-19T09:57:35.529Z,101005.97
2019-02-19T10:00:07.793Z,101007.80
2019-02-19T10:02:37.441Z,101010.22
2019-02-19T10:05:08.043Z,101008.02
2019-02-19T10:07:37.407Z,101011.88
2019-02-19T10:10:09.164Z,101016.09
2019-02-19T10:12:38.667Z,101019.46
2019-02-19T10:15:09.144Z,101022.22
2019-02-19T10:17:38.764Z,101025.84
2019-02-19T10:20:08.489Z,101027.57
2019-02-19T10:22:37.850Z,101031.50
2019-02-19T10:25:08.561Z,101035.14
2019-02-19T10:27:37.800Z,101033.56
2019-02-19T10:30:08.407Z,101035.16
2019-02-19T10:32:37.935Z,101041.00
2019-02-19T10:35:07.603Z,101040.79
2019-02-19T10:37:37.045Z,101046.94
2019-02-19T10:40:11.367Z,101048.94
2019-02-19T10:42:40.698Z,101048.80
2019-02-19T10:45:12.220Z,101043.63
2019-02-19T10:47:41.828Z,101049.05
2019-02-19T10:50:11.313Z,101054.60
2019-02-19T10:52:41.024Z,101052.05
2019-02-19T10:55:10.562Z,101059.67
2019-02-19T10:57:40.107Z,101056.39
2019-02-19T11:00:13.297Z,101060.22
2019-02-19T11:02:42.869Z,101060.33
2019-02-19T11:05:12.538Z,101057.63
2019-02-19T11:07:41.839Z,101054.00
2019-02-19T11:10:11.286Z,101049.76
2019-02-19T11:12:41.123Z,101054.11
2019-02-19T11:15:12.922Z,101054.11
2019-02-19T11:17:42.604Z,101051.66
2019-02-19T11:20:12.474Z,101045.38
2019-02-19T11:22:41.912Z,101052.05
2019-02-19T11:25:12.133Z,101048.84
2019-02-19T11:27:41.393Z,101045.21
2019-02-19T11:30:13.313Z,101043.21
2019-02-19T11:32:42.877Z,101051.80
2019-02-19T11:35:12.248Z,101047.37
2019-02-19T11:37:41.541Z,101046.85
2019-02-19T11:40:12.015Z,101044.17
2019-02-19T11:42:41.287Z,101038.49
2019-02-19T11:45:12.489Z,101038.62
2019-02-19T11:47:42.020Z,101036.45
2019-02-19T11:50:12.168Z,101038.98
2019-02-19T11:52:41.472Z,101038.99
2019-02-19T11:55:12.397Z,101039.33
2019-02-19T11:57:41.759Z,101031.75
2019-02-19T12:00:14.382Z,101030.55
2019-02-19T12:02:43.926Z,101032.06
2019-02-19T12:05:13.334Z,101033.05
2019-02-19T12:07:42.786Z,101033.42
2019-02-19T12:10:12.527Z,101026.95
2019-02-19T12:12:41.760Z,101031.37
2019-02-19T12:15:11.236Z,101031.98
2019-02-19T12:17:40.700Z,101030.17
2019-02-19T12:20:11.598Z,101036.25
2019-02-19T12:22:49.184Z,101027.09
2019-02-19T12:25:18.456Z,101014.92
2019-02-19T12:27:47.758Z,101016.70
2019-02-19T12:30:17.930Z,101003.16
2019-02-19T12:32:47.180Z,101001.39
2019-02-19T12:35:16.480Z,101006.21
2019-02-19T12:37:47.088Z,101007.05
2019-02-19T12:40:16.366Z,101006.20
2019-02-19T12:42:45.605Z,101008.30
2019-02-19T12:45:16.234Z,101006.92
2019-02-19T12:47:45.649Z,101002.08
2019-02-19T12:50:14.975Z,101006.86
2019-02-19T12:52:44.570Z,100997.95
2019-02-19T12:55:13.955Z,100996.89
2019-02-19T12:57:43.207Z,100999.28
2019-02-19T13:00:14.231Z,100994.28
2019-02-19T13:02:44.222Z,100987.97
2019-02-19T13:05:13.782Z,100982.91
2019-02-19T13:07:43.035Z,100986.53
2019-02-19T13:10:12.664Z,100983.35
2019-02-19T13:12:41.903Z,100974.62
2019-02-19T13:15:12.753Z,100967.31
2019-02-19T13:17:41.967Z,100973.79
2019-02-19T13:20:12.648Z,100976.03
2019-02-19T13:22:42.268Z,100977.42
2019-02-19T13:25:11.710Z,100976.94
2019-02-19T13:27:40.931Z,100974.20
2019-02-19T13:30:12.939Z,100970.62
2019-02-19T13:32:42.167Z,100964.73
2019-02-19T13:35:11.929Z,100952.63
2019-02-19T13:37:41.488Z,100956.53
2019-02-19T13:40:11.565Z,100960.17
2019-02-19T13:42:40.877Z,100951.83
2019-02-19T13:45:11.434Z,100955.33
2019-02-19T13:47:40.686Z,100955.05
2019-02-19T13:50:12.689Z,100962.11
2019-02-19T13:52:50.119Z,100960.16
2019-02-19T13:55:22.747Z,100956.98
2019-02-19T13:57:52.019Z,100957.71
2019-02-19T14:00:23.455Z,100963.28
2019-02-19T14:02:52.790Z,100962.91
2019-02-19T14:05:22.193Z,100967.33
2019-02-19T14:07:51.777Z,100967.30
2019-02-19T14:10:21.015Z,100962.42
2019-02-19T14:12:51.597Z,100960.78
2019-02-19T14:15:40.116Z,100959.46
2019-02-19T14:18:10.211Z,100950.65
2019-02-19T14:21:01.729Z,100960.29
2019-02-19T14:23:58.940Z,100959.33
2019-02-19T14:26:49.113Z,100957.39
2019-02-19T14:29:36.399Z,100958.08
2019-02-19T14:32:42.749Z,100957.69
2019-02-19T14:35:27.966Z,100966.27
2019-02-19T14:38:16.507Z,100968.81
2019-02-19T14:40:58.246Z,100966.94
2019-02-19T14:43:49.709Z,100972.13
2019-02-19T14:46:46.966Z,100975.81
2019-02-19T14:49:36.607Z,100973.45
2019-02-19T14:52:21.293Z,100972.85
2019-02-19T14:55:25.009Z,100971.57
2019-02-19T14:58:19.088Z,100971.67
2019-02-19T15:01:09.466Z,100976.80
2019-02-19T15:03:56.489Z,100970.11
2019-02-19T15:06:54.809Z,100972.84
2019-02-19T15:09:45.865Z,100971.27
2019-02-19T15:12:37.470Z,100970.35
2019-02-19T15:15:25.489Z,100973.10
2019-02-19T15:18:25.666Z,100968.81
2019-02-19T15:21:16.685Z,100974.92
2019-02-19T15:24:05.804Z,100975.16
2019-02-19T15:26:54.592Z,100967.02
2019-02-19T15:29:41.908Z,100971.34
2019-02-19T15:32:42.348Z,100968.61
2019-02-19T15:35:34.127Z,100969.47
2019-02-19T15:38:28.488Z,100969.86
2019-02-19T15:41:28.927Z,100965.71
2019-02-19T15:44:09.324Z,100966.66
2019-02-19T15:49:47.498Z,100968.67
2019-02-19T15:52:27.544Z,100968.27
2019-02-19T15:55:14.438Z,100973.70
2019-02-19T15:58:21.322Z,100974.50
2019-02-19T16:01:08.360Z,100968.71
2019-02-19T16:03:53.065Z,100965.47
2019-02-19T16:06:38.313Z,100970.92
2019-02-19T16:09:15.892Z,100964.27
2019-02-19T16:12:10.543Z,100970.72
2019-02-19T16:14:47.258Z,100974.44
2019-02-19T16:17:42.444Z,100975.01
2019-02-19T16:20:20.302Z,100978.58
2019-02-19T16:22:59.448Z,100985.25
2019-02-19T16:25:46.489Z,100985.95
2019-02-19T16:28:31.395Z,100986.27
2019-02-19T16:31:10.185Z,100983.86
2019-02-19T16:33:50.217Z,100987.30
2019-02-19T16:36:29.166Z,100984.44
2019-02-19T16:39:26.706Z,100987.75
2019-02-19T16:42:13.900Z,100983.07
2019-02-19T16:45:15.067Z,100989.31
2019-02-19T16:48:03.931Z,100991.80
2019-02-19T16:50:40.616Z,101000.05
2019-02-19T16:53:35.410Z,100999.19
2019-02-19T16:56:18.431Z,100990.12
2019-02-19T16:59:07.714Z,101003.08
2019-02-19T17:01:51.303Z,101002.47
2019-02-19T17:04:46.094Z,101002.55
2019-02-19T17:07:23.494Z,101002.84
2019-02-19T17:10:00.525Z,101006.91
2019-02-19T17:12:49.346Z,101005.64
2019-02-19T17:15:40.374Z,101008.03
2019-02-19T17:18:27.820Z,101011.35
2019-02-19T17:21:06.532Z,101016.61
2019-02-19T17:23:54.684Z,101017.22
2019-02-19T17:26:46.615Z,101021.45
2019-02-19T17:29:40.017Z,101022.18
2019-02-19T17:32:28.892Z,101026.20
2019-02-19T17:35:15.539Z,101030.63
2019-02-19T17:37:55.004Z,101035.93
2019-02-19T17:40:39.075Z,101040.13
2019-02-19T17:43:16.858Z,101034.23
2019-02-19T17:46:12.513Z,101041.27
2019-02-19T17:48:59.880Z,101043.52
2019-02-19T17:51:57.680Z,101042.14
2019-02-19T17:55:02.913Z,101047.47
2019-02-19T17:57:41.721Z,101050.81
2019-02-19T18:00:34.120Z,101056.73
2019-02-19T18:03:31.796Z,101057.30
2019-02-19T18:06:17.242Z,101058.02
2019-02-19T18:09:05.840Z,101057.55
2019-02-19T18:11:50.319Z,101052.23
2019-02-19T18:14:32.392Z,101058.69
2019-02-19T18:17:21.665Z,101063.08
2019-02-19T18:19:51.702Z,101067.80
2019-02-19T18:22:21.750Z,101070.76
2019-02-19T18:24:51.592Z,101070.34
2019-02-19T18:27:21.630Z,101073.05
2019-02-19T18:29:51.831Z,101072.16
2019-02-19T18:32:21.557Z,101072.06
2019-02-19T18:34:51.627Z,101072.06
2019-02-19T18:37:21.697Z,101074.20
2019-02-19T18:39:51.417Z,101078.28
2019-02-19T18:42:21.324Z,101077.66
2019-02-19T18:47:11.909Z,101074.00
2019-02-19T18:49:41.753Z,101067.17
2019-02-19T18:52:12.082Z,101072.52
2019-02-19T18:54:41.835Z,101074.36
2019-02-19T18:57:11.588Z,101076.44
2019-02-19T18:59:41.668Z,101087.97
2019-02-19T19:02:13.484Z,101079.38
2019-02-19T19:04:43.233Z,101084.87
2019-02-19T19:07:13.345Z,101086.80
2019-02-19T19:09:43.062Z,101087.32
2019-02-19T19:12:13.005Z,101083.45
2019-02-19T19:14:43.028Z,101086.80
2019-02-19T19:17:12.766Z,101087.45
2019-02-19T19:19:42.575Z,101094.19
2019-02-19T19:22:12.715Z,101099.16
2019-02-19T19:24:42.516Z,101103.68
2019-02-19T19:27:12.556Z,101101.05
2019-02-19T19:29:42.569Z,101100.61
2019-02-19T19:32:14.629Z,101103.68
2019-02-19T19:34:44.669Z,101108.84
2019-02-19T19:37:14.696Z,101107.29
2019-02-19T19:39:44.373Z,101111.73
2019-02-19T19:42:14.688Z,101109.53
2019-02-19T19:44:44.728Z,101108.50
2019-02-19T19:47:14.461Z,101106.49
2019-02-19T19:49:44.395Z,101107.01
2019-02-19T19:52:14.494Z,101108.83
2019-02-19T19:54:44.321Z,101110.08
2019-02-19T19:57:14.093Z,101115.45
2019-02-19T19:59:44.266Z,101118.75
2019-02-19T20:02:14.097Z,101117.23
2019-02-19T20:04:43.908Z,101120.48
2019-02-19T20:07:14.074Z,101126.27
2019-02-19T20:09:43.854Z,101122.69
2019-02-19T20:12:13.680Z,101126.27
2019-02-19T20:14:43.841Z,101127.02
2019-02-19T20:17:13.698Z,101124.39
2019-02-19T20:19:45.182Z,101127.75
2019-02-19T20:22:15.417Z,101129.41
2019-02-19T20:24:47.410Z,101131.77
2019-02-19T20:27:17.588Z,101134.39
2019-02-19T20:29:49.085Z,101136.05
2019-02-19T20:32:19.586Z,101133.75
2019-02-19T20:34:49.415Z,101138.70
2019-02-19T20:37:19.401Z,101142.73
2019-02-19T20:39:49.454Z,101141.98
2019-02-19T20:42:19.350Z,101146.52
2019-02-19T20:44:52.718Z,101144.05
2019-02-19T20:47:22.505Z,101149.80
2019-02-19T20:49:52.283Z,101145.52
2019-02-19T20:52:22.300Z,101150.39
2019-02-19T20:54:52.062Z,101151.95
2019-02-19T20:57:22.047Z,101152.41
2019-02-19T20:59:52.160Z,101154.73
2019-02-19T21:02:22.001Z,101150.59
2019-02-19T21:04:52.848Z,101155.48
2019-02-19T21:07:22.963Z,101156.05
2019-02-19T21:09:52.701Z,101156.28
2019-02-19T21:12:22.721Z,101152.98
2019-02-19T21:14:53.009Z,101149.06
2019-02-19T21:17:22.749Z,101155.70
2019-02-19T21:19:53.592Z,101154.80
2019-02-19T21:22:23.659Z,101151.38
2019-02-19T21:24:53.369Z,101156.53
2019-02-19T21:27:24.076Z,101157.39
2019-02-19T21:29:54.709Z,101152.89
2019-02-19T21:32:24.390Z,101157.68
2019-02-19T21:34:54.116Z,101159.39
2019-02-19T21:37:24.257Z,101151.54
2019-02-19T21:39:53.940Z,101161.06
2019-02-19T21:42:24.035Z,101160.28
2019-02-19T21:44:54.104Z,101157.47
2019-02-19T21:47:23.990Z,101161.45
2019-02-19T21:49:54.158Z,101159.09
2019-02-19T21:52:24.223Z,101165.72
2019-02-19T21:54:53.933Z,101168.28
2019-02-19T21:57:23.510Z,101169.16
2019-02-19T21:59:53.525Z,101168.36
2019-02-19T22:02:23.014Z,101172.42
2019-02-19T22:04:52.775Z,101169.94
2019-02-19T22:07:22.356Z,101166.03
2019-02-19T22:09:51.728Z,101162.02
2019-02-19T22:12:21.088Z,101165.77
2019-02-19T22:14:51.691Z,101175.16
2019-02-19T22:17:21.076Z,101172.44
2019-02-19T22:19:50.384Z,101173.05
2019-02-19T22:22:21.972Z,101170.06
2019-02-19T22:24:51.190Z,101173.06
2019-02-19T22:27:20.482Z,101171.00
2019-02-19T22:29:50.871Z,101174.34
2019-02-19T22:32:20.374Z,101172.62
2019-02-19T22:34:49.644Z,101174.30
2019-02-19T22:37:19.140Z,101175.05
2019-02-19T22:39:48.397Z,101173.23
2019-02-19T22:42:17.654Z,101181.77
2019-02-19T22:44:47.192Z,101183.52
2019-02-19T22:47:16.438Z,101179.77
2019-02-19T22:49:45.739Z,101186.50
2019-02-19T22:52:15.262Z,101185.20
2019-02-19T22:55:09.712Z,101187.37
2019-02-19T22:57:39.247Z,101187.75
2019-02-19T23:00:11.383Z,101186.94
2019-02-19T23:02:41.132Z,101190.87
2019-02-19T23:05:10.560Z,101190.55
2019-02-19T23:07:39.877Z,101193.77
2019-02-19T23:10:09.403Z,101198.34
2019-02-19T23:12:38.654Z,101201.45
2019-02-19T23:15:08.004Z,101199.73
2019-02-19T23:17:37.382Z,101194.05
2019-02-19T23:20:06.932Z,101189.22
2019-02-19T23:22:36.158Z,101196.73
2019-02-19T23:25:05.588Z,101196.09
2019-02-19T23:27:34.818Z,101191.09
2019-02-19T23:30:07.492Z,101190.65
2019-02-19T23:32:38.614Z,101191.58
2019-02-19T23:35:27.119Z,101192.52
2019-02-19T23:37:57.545Z,101188.67
2019-02-19T23:40:26.744Z,101192.22
2019-02-19T23:42:56.157Z,101186.93
2019-02-19T23:45:25.868Z,101189.61
2019-02-19T23:47:55.130Z,101193.09
2019-02-19T23:50:24.400Z,101191.29
2019-02-19T23:52:53.957Z,101199.13
2019-02-19T23:55:23.271Z,101189.98
2019-02-19T23:57:52.592Z,101200.11
